sensor_id;sensor_type;location;lat;lon;timestamp;pressure;altitude;pressure_sealevel;temperature;humidity
70968;BME280;58629;48.808;8.820;2023-04-03T00:00:06;97845.16;;;3.21;77.63
70968;BME280;58629;48.808;8.820;2023-04-03T00:02:32;97844.63;;;3.15;76.03
70968;BME280;58629;48.808;8.820;2023-04-03T00:04:57;97849.78;;;3.12;76.42
70968;BME280;58629;48.808;8.820;2023-04-03T00:07:23;97842.00;;;3.15;75.58
70968;BME280;58629;48.808;8.820;2023-04-03T00:09:48;97840.00;;;3.24;77.20
70968;BME280;58629;48.808;8.820;2023-04-03T00:12:13;97839.91;;;3.21;78.25
70968;BME280;58629;48.808;8.820;2023-04-03T00:14:38;97840.59;;;3.18;76.12
70968;BME280;58629;48.808;8.820;2023-04-03T00:17:04;97840.31;;;3.23;77.96
70968;BME280;58629;48.808;8.820;2023-04-03T00:19:30;97842.94;;;3.23;77.97
70968;BME280;58629;48.808;8.820;2023-04-03T00:21:55;97837.38;;;3.24;78.17
70968;BME280;58629;48.808;8.820;2023-04-03T00:24:20;97833.66;;;3.25;78.53
70968;BME280;58629;48.808;8.820;2023-04-03T00:26:45;97841.50;;;3.25;78.52
70968;BME280;58629;48.808;8.820;2023-04-03T00:29:11;97837.88;;;3.30;79.25
70968;BME280;58629;48.808;8.820;2023-04-03T00:31:36;97841.25;;;3.30;78.23
70968;BME280;58629;48.808;8.820;2023-04-03T00:34:01;97840.84;;;3.28;76.80
70968;BME280;58629;48.808;8.820;2023-04-03T00:36:27;97838.72;;;3.18;76.07
70968;BME280;58629;48.808;8.820;2023-04-03T00:38:52;97832.47;;;3.23;77.28
70968;BME280;58629;48.808;8.820;2023-04-03T00:41:17;97836.97;;;3.22;76.87
70968;BME280;58629;48.808;8.820;2023-04-03T00:43:43;97835.78;;;3.20;76.56
70968;BME280;58629;48.808;8.820;2023-04-03T00:46:08;97835.63;;;3.13;77.47
70968;BME280;58629;48.808;8.820;2023-04-03T00:48:46;97830.72;;;3.11;78.10
70968;BME280;58629;48.808;8.820;2023-04-03T00:51:25;97842.88;;;3.04;76.84
70968;BME280;58629;48.808;8.820;2023-04-03T00:53:58;97833.94;;;3.05;78.19
70968;BME280;58629;48.808;8.820;2023-04-03T00:56:26;97834.09;;;2.96;78.18
70968;BME280;58629;48.808;8.820;2023-04-03T01:01:23;97832.50;;;2.92;78.05
70968;BME280;58629;48.808;8.820;2023-04-03T01:03:49;97833.84;;;2.86;79.43
70968;BME280;58629;48.808;8.820;2023-04-03T01:06:16;97833.13;;;2.85;79.71
70968;BME280;58629;48.808;8.820;2023-04-03T01:08:42;97833.78;;;2.82;80.11
70968;BME280;58629;48.808;8.820;2023-04-03T01:11:07;97833.94;;;2.74;78.70
70968;BME280;58629;48.808;8.820;2023-04-03T01:13:33;97829.97;;;2.64;78.92
70968;BME280;58629;48.808;8.820;2023-04-03T01:16:03;97825.00;;;2.59;79.10
70968;BME280;58629;48.808;8.820;2023-04-03T01:18:30;97834.53;;;2.51;79.75
70968;BME280;58629;48.808;8.820;2023-04-03T01:24:07;97833.50;;;2.40;80.55
70968;BME280;58629;48.808;8.820;2023-04-03T01:26:29;97830.72;;;2.33;80.33
70968;BME280;58629;48.808;8.820;2023-04-03T01:28:55;97831.88;;;2.36;81.29
70968;BME280;58629;48.808;8.820;2023-04-03T01:33:56;97830.09;;;2.24;81.15
70968;BME280;58629;48.808;8.820;2023-04-03T01:36:27;97834.81;;;2.19;81.05
70968;BME280;58629;48.808;8.820;2023-04-03T01:38:54;97833.38;;;2.21;81.85
70968;BME280;58629;48.808;8.820;2023-04-03T01:41:20;97835.16;;;2.17;81.16
70968;BME280;58629;48.808;8.820;2023-04-03T01:43:46;97838.53;;;2.18;81.10
70968;BME280;58629;48.808;8.820;2023-04-03T01:46:12;97839.59;;;2.17;80.93
70968;BME280;58629;48.808;8.820;2023-04-03T01:48:37;97836.13;;;2.13;80.96
70968;BME280;58629;48.808;8.820;2023-04-03T01:51:02;97839.84;;;2.12;81.27
70968;BME280;58629;48.808;8.820;2023-04-03T01:53:28;97834.63;;;2.12;82.11
70968;BME280;58629;48.808;8.820;2023-04-03T01:55:53;97845.09;;;2.12;82.11
70968;BME280;58629;48.808;8.820;2023-04-03T01:58:18;97842.47;;;2.12;81.84
70968;BME280;58629;48.808;8.820;2023-04-03T02:00:43;97838.31;;;2.11;81.81
70968;BME280;58629;48.808;8.820;2023-04-03T02:03:09;97840.84;;;2.07;82.19
70968;BME280;58629;48.808;8.820;2023-04-03T02:05:34;97836.06;;;2.09;82.04
70968;BME280;58629;48.808;8.820;2023-04-03T02:08:00;97844.97;;;2.08;81.51
70968;BME280;58629;48.808;8.820;2023-04-03T02:10:25;97843.13;;;2.09;81.37
70968;BME280;58629;48.808;8.820;2023-04-03T02:12:51;97838.88;;;2.04;81.36
70968;BME280;58629;48.808;8.820;2023-04-03T02:15:17;97850.09;;;2.05;80.83
70968;BME280;58629;48.808;8.820;2023-04-03T02:17:42;97847.06;;;2.03;81.15
70968;BME280;58629;48.808;8.820;2023-04-03T02:20:07;97850.44;;;2.03;81.25
70968;BME280;58629;48.808;8.820;2023-04-03T02:22:33;97847.81;;;2.03;81.10
70968;BME280;58629;48.808;8.820;2023-04-03T02:24:58;97853.41;;;2.02;81.44
70968;BME280;58629;48.808;8.820;2023-04-03T02:27:24;97850.09;;;2.05;81.27
70968;BME280;58629;48.808;8.820;2023-04-03T02:29:49;97848.59;;;2.04;82.05
70968;BME280;58629;48.808;8.820;2023-04-03T02:32:15;97849.69;;;2.03;81.34
70968;BME280;58629;48.808;8.820;2023-04-03T02:34:40;97844.88;;;2.05;81.30
70968;BME280;58629;48.808;8.820;2023-04-03T02:37:05;97850.53;;;2.07;81.09
70968;BME280;58629;48.808;8.820;2023-04-03T02:39:31;97851.72;;;2.09;82.22
70968;BME280;58629;48.808;8.820;2023-04-03T02:41:56;97847.56;;;2.08;81.74
70968;BME280;58629;48.808;8.820;2023-04-03T02:44:21;97847.50;;;2.05;82.03
70968;BME280;58629;48.808;8.820;2023-04-03T02:46:48;97849.75;;;2.06;82.20
70968;BME280;58629;48.808;8.820;2023-04-03T02:49:14;97840.34;;;2.02;81.76
70968;BME280;58629;48.808;8.820;2023-04-03T02:51:39;97842.19;;;2.01;82.25
70968;BME280;58629;48.808;8.820;2023-04-03T02:54:04;97855.56;;;2.00;82.07
70968;BME280;58629;48.808;8.820;2023-04-03T02:56:30;97849.59;;;1.99;81.55
70968;BME280;58629;48.808;8.820;2023-04-03T02:58:55;97843.25;;;2.00;82.02
70968;BME280;58629;48.808;8.820;2023-04-03T03:01:20;97848.59;;;2.04;82.35
70968;BME280;58629;48.808;8.820;2023-04-03T03:03:46;97839.22;;;2.03;81.88
70968;BME280;58629;48.808;8.820;2023-04-03T03:06:13;97844.78;;;2.01;81.84
70968;BME280;58629;48.808;8.820;2023-04-03T03:08:40;97844.44;;;2.03;82.49
70968;BME280;58629;48.808;8.820;2023-04-03T03:11:06;97842.94;;;2.02;81.99
70968;BME280;58629;48.808;8.820;2023-04-03T03:13:31;97835.84;;;2.02;81.85
70968;BME280;58629;48.808;8.820;2023-04-03T03:15:56;97830.63;;;2.02;81.46
70968;BME280;58629;48.808;8.820;2023-04-03T03:18:22;97836.19;;;2.01;81.55
70968;BME280;58629;48.808;8.820;2023-04-03T03:20:55;97837.47;;;2.07;81.68
70968;BME280;58629;48.808;8.820;2023-04-03T03:23:22;97840.09;;;2.07;80.93
70968;BME280;58629;48.808;8.820;2023-04-03T03:25:48;97841.63;;;2.08;81.45
70968;BME280;58629;48.808;8.820;2023-04-03T03:28:13;97837.56;;;2.10;81.33
70968;BME280;58629;48.808;8.820;2023-04-03T03:30:39;97835.72;;;2.11;81.83
70968;BME280;58629;48.808;8.820;2023-04-03T03:33:05;97832.09;;;2.15;82.66
70968;BME280;58629;48.808;8.820;2023-04-03T03:35:30;97832.53;;;2.17;81.00
70968;BME280;58629;48.808;8.820;2023-04-03T03:37:56;97833.31;;;2.18;80.70
70968;BME280;58629;48.808;8.820;2023-04-03T03:40:22;97837.00;;;2.17;80.17
70968;BME280;58629;48.808;8.820;2023-04-03T03:42:47;97835.56;;;2.19;80.05
70968;BME280;58629;48.808;8.820;2023-04-03T03:45:12;97835.22;;;2.21;80.12
70968;BME280;58629;48.808;8.820;2023-04-03T03:47:37;97837.06;;;2.20;80.61
70968;BME280;58629;48.808;8.820;2023-04-03T03:50:03;97827.91;;;2.26;81.14
70968;BME280;58629;48.808;8.820;2023-04-03T03:52:29;97831.38;;;2.30;80.33
70968;BME280;58629;48.808;8.820;2023-04-03T03:54:55;97834.31;;;2.29;79.95
70968;BME280;58629;48.808;8.820;2023-04-03T03:57:20;97835.75;;;2.26;80.22
70968;BME280;58629;48.808;8.820;2023-04-03T03:59:46;97833.47;;;2.25;79.60
70968;BME280;58629;48.808;8.820;2023-04-03T04:02:12;97837.69;;;2.29;79.85
70968;BME280;58629;48.808;8.820;2023-04-03T04:04:37;97833.56;;;2.28;79.48
70968;BME280;58629;48.808;8.820;2023-04-03T04:07:03;97837.69;;;2.29;79.12
70968;BME280;58629;48.808;8.820;2023-04-03T04:09:29;97841.59;;;2.35;79.75
70968;BME280;58629;48.808;8.820;2023-04-03T04:11:54;97841.25;;;2.37;79.28
70968;BME280;58629;48.808;8.820;2023-04-03T04:14:19;97837.78;;;2.33;78.79
70968;BME280;58629;48.808;8.820;2023-04-03T04:16:47;97841.59;;;2.35;79.59
70968;BME280;58629;48.808;8.820;2023-04-03T04:19:13;97847.47;;;2.32;78.24
70968;BME280;58629;48.808;8.820;2023-04-03T04:21:39;97842.25;;;2.32;78.04
70968;BME280;58629;48.808;8.820;2023-04-03T04:24:05;97843.00;;;2.33;77.58
70968;BME280;58629;48.808;8.820;2023-04-03T04:26:30;97844.53;;;2.34;77.79
70968;BME280;58629;48.808;8.820;2023-04-03T04:28:56;97842.16;;;2.29;77.09
70968;BME280;58629;48.808;8.820;2023-04-03T04:31:21;97837.03;;;2.32;76.22
70968;BME280;58629;48.808;8.820;2023-04-03T04:33:46;97839.97;;;2.31;75.45
70968;BME280;58629;48.808;8.820;2023-04-03T04:36:11;97843.00;;;2.33;77.28
70968;BME280;58629;48.808;8.820;2023-04-03T04:38:37;97848.59;;;2.31;76.02
70968;BME280;58629;48.808;8.820;2023-04-03T04:41:03;97841.81;;;2.30;75.76
70968;BME280;58629;48.808;8.820;2023-04-03T04:43:28;97842.59;;;2.31;76.79
70968;BME280;58629;48.808;8.820;2023-04-03T04:46:01;97842.59;;;2.31;75.91
70968;BME280;58629;48.808;8.820;2023-04-03T04:48:27;97846.81;;;2.35;76.12
70968;BME280;58629;48.808;8.820;2023-04-03T04:50:52;97846.06;;;2.35;76.61
70968;BME280;58629;48.808;8.820;2023-04-03T04:53:17;97849.44;;;2.35;76.57
70968;BME280;58629;48.808;8.820;2023-04-03T04:55:42;97848.25;;;2.33;76.63
70968;BME280;58629;48.808;8.820;2023-04-03T04:58:08;97853.03;;;2.31;76.56
70968;BME280;58629;48.808;8.820;2023-04-03T05:00:33;97853.47;;;2.33;76.00
70968;BME280;58629;48.808;8.820;2023-04-03T05:02:58;97858.78;;;2.36;76.27
70968;BME280;58629;48.808;8.820;2023-04-03T05:05:23;97856.59;;;2.38;77.01
70968;BME280;58629;48.808;8.820;2023-04-03T05:07:49;97863.44;;;2.43;77.45
70968;BME280;58629;48.808;8.820;2023-04-03T05:10:14;97866.47;;;2.45;76.50
70968;BME280;58629;48.808;8.820;2023-04-03T05:12:39;97865.19;;;2.39;75.78
70968;BME280;58629;48.808;8.820;2023-04-03T05:15:05;97864.94;;;2.44;77.16
70968;BME280;58629;48.808;8.820;2023-04-03T05:17:31;97863.88;;;2.45;77.11
70968;BME280;58629;48.808;8.820;2023-04-03T05:19:56;97865.78;;;2.48;77.59
70968;BME280;58629;48.808;8.820;2023-04-03T05:22:21;97864.28;;;2.47;76.32
70968;BME280;58629;48.808;8.820;2023-04-03T05:24:47;97868.53;;;2.51;76.43
70968;BME280;58629;48.808;8.820;2023-04-03T05:27:12;97867.00;;;2.50;76.62
70968;BME280;58629;48.808;8.820;2023-04-03T05:29:37;97870.44;;;2.54;76.84
70968;BME280;58629;48.808;8.820;2023-04-03T05:32:03;97870.19;;;2.59;76.32
70968;BME280;58629;48.808;8.820;2023-04-03T05:34:28;97871.31;;;2.58;75.34
70968;BME280;58629;48.808;8.820;2023-04-03T05:36:54;97870.72;;;2.65;76.48
70968;BME280;58629;48.808;8.820;2023-04-03T05:39:19;97869.53;;;2.62;75.02
70968;BME280;58629;48.808;8.820;2023-04-03T05:41:44;97868.34;;;2.60;73.33
70968;BME280;58629;48.808;8.820;2023-04-03T05:44:10;97878.88;;;2.63;72.01
70968;BME280;58629;48.808;8.820;2023-04-03T05:46:35;97885.66;;;2.64;72.35
70968;BME280;58629;48.808;8.820;2023-04-03T05:49:00;97890.88;;;2.64;70.95
70968;BME280;58629;48.808;8.820;2023-04-03T05:51:34;97890.78;;;2.61;72.66
70968;BME280;58629;48.808;8.820;2023-04-03T05:54:08;97895.25;;;2.60;73.05
70968;BME280;58629;48.808;8.820;2023-04-03T05:56:34;97900.06;;;2.58;73.51
70968;BME280;58629;48.808;8.820;2023-04-03T05:59:00;97887.41;;;2.60;73.56
70968;BME280;58629;48.808;8.820;2023-04-03T06:01:25;97899.38;;;2.61;72.60
70968;BME280;58629;48.808;8.820;2023-04-03T06:03:51;97890.53;;;2.66;74.01
70968;BME280;58629;48.808;8.820;2023-04-03T06:06:16;97897.38;;;2.71;73.80
70968;BME280;58629;48.808;8.820;2023-04-03T06:08:42;97889.63;;;2.74;74.03
70968;BME280;58629;48.808;8.820;2023-04-03T06:11:08;97890.38;;;2.75;73.01
70968;BME280;58629;48.808;8.820;2023-04-03T06:13:33;97893.94;;;2.82;75.97
70968;BME280;58629;48.808;8.820;2023-04-03T06:16:00;97899.09;;;2.79;73.54
70968;BME280;58629;48.808;8.820;2023-04-03T06:18:25;97901.84;;;2.86;75.10
70968;BME280;58629;48.808;8.820;2023-04-03T06:20:51;97903.56;;;2.94;74.81
70968;BME280;58629;48.808;8.820;2023-04-03T06:23:16;97904.81;;;3.00;74.48
70968;BME280;58629;48.808;8.820;2023-04-03T06:25:42;97896.63;;;3.01;72.73
70968;BME280;58629;48.808;8.820;2023-04-03T06:28:08;97896.63;;;3.01;72.44
70968;BME280;58629;48.808;8.820;2023-04-03T06:30:35;97900.84;;;3.06;72.43
70968;BME280;58629;48.808;8.820;2023-04-03T06:33:01;97907.28;;;3.08;73.35
70968;BME280;58629;48.808;8.820;2023-04-03T06:35:26;97903.25;;;3.11;73.24
70968;BME280;58629;48.808;8.820;2023-04-03T06:37:53;97914.22;;;3.16;72.42
70968;BME280;58629;48.808;8.820;2023-04-03T06:40:22;97906.28;;;3.13;71.16
70968;BME280;58629;48.808;8.820;2023-04-03T06:42:47;97911.25;;;3.18;71.58
70968;BME280;58629;48.808;8.820;2023-04-03T06:45:13;97906.94;;;3.25;72.28
70968;BME280;58629;48.808;8.820;2023-04-03T06:47:39;97910.16;;;3.19;71.69
70968;BME280;58629;48.808;8.820;2023-04-03T06:50:05;97910.31;;;3.26;71.86
70968;BME280;58629;48.808;8.820;2023-04-03T06:52:31;97919.94;;;3.22;71.45
70968;BME280;58629;48.808;8.820;2023-04-03T06:54:57;97911.81;;;3.27;71.29
70968;BME280;58629;48.808;8.820;2023-04-03T06:57:24;97919.50;;;3.35;72.85
70968;BME280;58629;48.808;8.820;2023-04-03T06:59:50;97914.69;;;3.37;72.25
70968;BME280;58629;48.808;8.820;2023-04-03T07:02:15;97921.00;;;3.52;73.19
70968;BME280;58629;48.808;8.820;2023-04-03T07:04:40;97918.41;;;3.52;72.43
70968;BME280;58629;48.808;8.820;2023-04-03T07:07:05;97922.44;;;3.49;71.95
70968;BME280;58629;48.808;8.820;2023-04-03T07:09:31;97923.56;;;3.48;72.97
70968;BME280;58629;48.808;8.820;2023-04-03T07:11:56;97925.84;;;3.50;73.14
70968;BME280;58629;48.808;8.820;2023-04-03T07:14:21;97930.28;;;3.65;74.24
70968;BME280;58629;48.808;8.820;2023-04-03T07:16:47;97926.41;;;3.59;71.93
70968;BME280;58629;48.808;8.820;2023-04-03T07:19:12;97932.75;;;3.58;71.82
70968;BME280;58629;48.808;8.820;2023-04-03T07:21:37;97940.34;;;3.63;71.79
70968;BME280;58629;48.808;8.820;2023-04-03T07:24:03;97939.81;;;3.73;71.41
70968;BME280;58629;48.808;8.820;2023-04-03T07:26:28;97940.22;;;3.75;71.86
70968;BME280;58629;48.808;8.820;2023-04-03T07:28:54;97936.94;;;3.78;71.91
70968;BME280;58629;48.808;8.820;2023-04-03T07:31:19;97941.59;;;3.69;71.08
70968;BME280;58629;48.808;8.820;2023-04-03T07:33:45;97939.25;;;3.64;71.55
70968;BME280;58629;48.808;8.820;2023-04-03T07:36:15;97942.94;;;3.63;72.01
70968;BME280;58629;48.808;8.820;2023-04-03T07:38:41;97941.66;;;3.73;72.78
70968;BME280;58629;48.808;8.820;2023-04-03T07:41:06;97947.94;;;3.68;70.69
70968;BME280;58629;48.808;8.820;2023-04-03T07:43:32;97947.41;;;3.78;71.65
70968;BME280;58629;48.808;8.820;2023-04-03T07:45:58;97944.66;;;3.90;70.95
70968;BME280;58629;48.808;8.820;2023-04-03T07:48:25;97948.31;;;3.86;70.93
70968;BME280;58629;48.808;8.820;2023-04-03T07:50:50;97948.75;;;4.07;70.52
70968;BME280;58629;48.808;8.820;2023-04-03T07:53:16;97953.75;;;4.12;70.67
70968;BME280;58629;48.808;8.820;2023-04-03T07:55:42;97956.16;;;4.20;70.56
70968;BME280;58629;48.808;8.820;2023-04-03T07:58:11;97954.00;;;4.26;69.41
70968;BME280;58629;48.808;8.820;2023-04-03T08:00:37;97958.72;;;4.36;70.52
70968;BME280;58629;48.808;8.820;2023-04-03T08:03:03;97964.19;;;4.47;69.50
70968;BME280;58629;48.808;8.820;2023-04-03T08:05:29;97957.13;;;4.51;69.99
70968;BME280;58629;48.808;8.820;2023-04-03T08:07:54;97964.50;;;4.64;69.49
70968;BME280;58629;48.808;8.820;2023-04-03T08:10:19;97960.38;;;4.63;69.06
70968;BME280;58629;48.808;8.820;2023-04-03T08:12:46;97961.69;;;4.54;68.33
70968;BME280;58629;48.808;8.820;2023-04-03T08:15:12;97966.78;;;4.66;68.51
70968;BME280;58629;48.808;8.820;2023-04-03T08:17:37;97971.06;;;4.55;67.69
70968;BME280;58629;48.808;8.820;2023-04-03T08:20:04;97964.44;;;4.61;67.76
70968;BME280;58629;48.808;8.820;2023-04-03T08:22:30;97962.25;;;4.85;69.44
70968;BME280;58629;48.808;8.820;2023-04-03T08:24:55;97966.72;;;5.04;68.81
70968;BME280;58629;48.808;8.820;2023-04-03T08:27:21;97963.34;;;4.81;67.27
70968;BME280;58629;48.808;8.820;2023-04-03T08:29:46;97968.56;;;4.81;68.25
70968;BME280;58629;48.808;8.820;2023-04-03T08:32:12;97964.78;;;4.78;66.84
70968;BME280;58629;48.808;8.820;2023-04-03T08:34:37;97969.03;;;4.86;68.57
70968;BME280;58629;48.808;8.820;2023-04-03T08:37:04;97961.28;;;4.93;67.13
70968;BME280;58629;48.808;8.820;2023-04-03T08:39:30;97969.41;;;4.85;66.58
70968;BME280;58629;48.808;8.820;2023-04-03T08:41:58;97967.56;;;5.08;66.25
70968;BME280;58629;48.808;8.820;2023-04-03T08:44:39;97972.03;;;5.07;67.54
70968;BME280;58629;48.808;8.820;2023-04-03T08:49:52;97971.47;;;5.40;66.49
70968;BME280;58629;48.808;8.820;2023-04-03T08:52:23;97973.47;;;5.47;66.16
70968;BME280;58629;48.808;8.820;2023-04-03T08:54:53;97973.78;;;5.45;69.22
70968;BME280;58629;48.808;8.820;2023-04-03T08:57:28;97975.00;;;5.74;72.29
70968;BME280;58629;48.808;8.820;2023-04-03T08:59:55;97975.72;;;5.97;65.11
70968;BME280;58629;48.808;8.820;2023-04-03T09:02:33;97977.34;;;5.82;66.12
70968;BME280;58629;48.808;8.820;2023-04-03T09:04:59;97976.13;;;5.99;68.30
70968;BME280;58629;48.808;8.820;2023-04-03T09:07:47;97977.97;;;5.98;64.75
70968;BME280;58629;48.808;8.820;2023-04-03T09:10:23;97975.16;;;5.84;69.19
70968;BME280;58629;48.808;8.820;2023-04-03T09:12:53;97980.19;;;6.23;69.79
70968;BME280;58629;48.808;8.820;2023-04-03T09:15:22;97975.94;;;6.14;64.07
70968;BME280;58629;48.808;8.820;2023-04-03T09:23:30;97983.19;;;6.21;65.90
70968;BME280;58629;48.808;8.820;2023-04-03T09:26:11;97976.75;;;6.48;68.00
70968;BME280;58629;48.808;8.820;2023-04-03T09:28:39;97972.41;;;6.63;64.20
70968;BME280;58629;48.808;8.820;2023-04-03T09:31:18;97974.84;;;6.78;65.75
70968;BME280;58629;48.808;8.820;2023-04-03T09:33:45;97981.13;;;6.37;62.09
70968;BME280;58629;48.808;8.820;2023-04-03T09:36:11;97972.41;;;6.30;61.26
70968;BME280;58629;48.808;8.820;2023-04-03T09:38:37;97980.19;;;6.23;61.28
70968;BME280;58629;48.808;8.820;2023-04-03T09:41:05;97980.97;;;6.23;62.61
70968;BME280;58629;48.808;8.820;2023-04-03T09:43:33;97976.25;;;6.36;65.04
70968;BME280;58629;48.808;8.820;2023-04-03T09:46:31;97983.19;;;6.21;63.66
70968;BME280;58629;48.808;8.820;2023-04-03T09:49:00;97981.22;;;6.44;63.45
70968;BME280;58629;48.808;8.820;2023-04-03T09:51:27;97971.94;;;6.24;62.92
70968;BME280;58629;48.808;8.820;2023-04-03T09:53:53;97973.69;;;6.43;63.64
70968;BME280;58629;48.808;8.820;2023-04-03T09:56:22;97977.47;;;6.45;62.60
70968;BME280;58629;48.808;8.820;2023-04-03T10:04:15;97966.13;;;6.71;62.09
70968;BME280;58629;48.808;8.820;2023-04-03T10:06:47;97974.03;;;6.74;62.26
70968;BME280;58629;48.808;8.820;2023-04-03T10:09:19;97965.56;;;6.55;62.16
70968;BME280;58629;48.808;8.820;2023-04-03T10:14:25;97966.22;;;6.81;63.47
70968;BME280;58629;48.808;8.820;2023-04-03T10:25:55;97949.44;;;6.93;56.84
70968;BME280;58629;48.808;8.820;2023-04-03T10:28:48;97951.56;;;6.84;60.17
70968;BME280;58629;48.808;8.820;2023-04-03T10:31:23;97950.78;;;6.80;62.88
70968;BME280;58629;48.808;8.820;2023-04-03T10:34:00;97960.03;;;6.63;59.19
70968;BME280;58629;48.808;8.820;2023-04-03T10:36:38;97961.13;;;6.62;60.95
70968;BME280;58629;48.808;8.820;2023-04-03T10:39:30;97957.69;;;6.58;59.01
70968;BME280;58629;48.808;8.820;2023-04-03T10:47:59;97964.19;;;6.68;60.40
70968;BME280;58629;48.808;8.820;2023-04-03T10:56:27;97958.25;;;6.74;55.59
70968;BME280;58629;48.808;8.820;2023-04-03T10:59:02;97951.41;;;7.03;56.31
70968;BME280;58629;48.808;8.820;2023-04-03T11:01:35;97954.47;;;7.12;57.65
70968;BME280;58629;48.808;8.820;2023-04-03T11:04:04;97950.72;;;7.13;57.84
70968;BME280;58629;48.808;8.820;2023-04-03T11:06:45;97960.28;;;7.32;56.61
70968;BME280;58629;48.808;8.820;2023-04-03T11:09:21;97947.88;;;7.29;58.04
70968;BME280;58629;48.808;8.820;2023-04-03T11:11:53;97953.56;;;7.38;57.62
70968;BME280;58629;48.808;8.820;2023-04-03T11:14:27;97957.63;;;7.28;55.18
70968;BME280;58629;48.808;8.820;2023-04-03T11:17:04;97949.56;;;7.07;54.85
70968;BME280;58629;48.808;8.820;2023-04-03T11:22:36;97950.41;;;7.18;55.28
70968;BME280;58629;48.808;8.820;2023-04-03T11:25:10;97949.13;;;7.01;54.76
70968;BME280;58629;48.808;8.820;2023-04-03T11:27:44;97949.84;;;6.98;56.98
70968;BME280;58629;48.808;8.820;2023-04-03T11:30:23;97938.81;;;7.30;59.00
70968;BME280;58629;48.808;8.820;2023-04-03T11:35:34;97941.06;;;6.87;56.35
70968;BME280;58629;48.808;8.820;2023-04-03T11:38:02;97943.53;;;6.70;58.85
70968;BME280;58629;48.808;8.820;2023-04-03T11:40:33;97940.59;;;6.75;56.36
70968;BME280;58629;48.808;8.820;2023-04-03T11:50:45;97944.25;;;6.67;57.99
70968;BME280;58629;48.808;8.820;2023-04-03T12:18:53;97910.66;;;7.37;54.85
70968;BME280;58629;48.808;8.820;2023-04-03T12:29:32;97913.34;;;7.44;53.90
70968;BME280;58629;48.808;8.820;2023-04-03T12:34:49;97900.44;;;6.85;56.74
70968;BME280;58629;48.808;8.820;2023-04-03T12:43:56;97912.06;;;6.44;56.03
70968;BME280;58629;48.808;8.820;2023-04-03T12:46:34;97906.75;;;6.73;56.23
70968;BME280;58629;48.808;8.820;2023-04-03T12:49:00;97907.56;;;6.81;56.93
70968;BME280;58629;48.808;8.820;2023-04-03T12:51:42;97905.22;;;7.13;56.67
70968;BME280;58629;48.808;8.820;2023-04-03T12:54:15;97906.53;;;7.40;57.63
70968;BME280;58629;48.808;8.820;2023-04-03T12:56:41;97903.53;;;7.41;56.30
70968;BME280;58629;48.808;8.820;2023-04-03T12:59:16;97906.13;;;7.34;54.56
70968;BME280;58629;48.808;8.820;2023-04-03T13:01:42;97905.69;;;7.83;55.48
70968;BME280;58629;48.808;8.820;2023-04-03T13:04:10;97892.25;;;8.06;55.94
70968;BME280;58629;48.808;8.820;2023-04-03T13:06:41;97891.72;;;7.75;48.19
70968;BME280;58629;48.808;8.820;2023-04-03T13:09:23;97890.63;;;7.83;48.78
70968;BME280;58629;48.808;8.820;2023-04-03T13:11:53;97899.72;;;7.97;50.97
70968;BME280;58629;48.808;8.820;2023-04-03T13:14:23;97889.56;;;7.99;48.13
70968;BME280;58629;48.808;8.820;2023-04-03T13:17:00;97891.63;;;8.30;52.87
70968;BME280;58629;48.808;8.820;2023-04-03T13:19:28;97891.28;;;8.49;50.62
70968;BME280;58629;48.808;8.820;2023-04-03T13:22:00;97890.31;;;8.03;46.89
70968;BME280;58629;48.808;8.820;2023-04-03T13:24:29;97898.91;;;7.85;47.87
70968;BME280;58629;48.808;8.820;2023-04-03T13:26:56;97897.38;;;7.77;50.57
70968;BME280;58629;48.808;8.820;2023-04-03T13:29:29;97897.47;;;7.99;52.01
70968;BME280;58629;48.808;8.820;2023-04-03T13:31:56;97895.72;;;7.55;48.62
70968;BME280;58629;48.808;8.820;2023-04-03T13:34:24;97896.56;;;7.66;49.17
70968;BME280;58629;48.808;8.820;2023-04-03T13:41:46;97893.34;;;8.01;49.26
70968;BME280;58629;48.808;8.820;2023-04-03T13:46:51;97883.88;;;7.97;49.41
70968;BME280;58629;48.808;8.820;2023-04-03T13:51:43;97891.50;;;7.40;49.58
70968;BME280;58629;48.808;8.820;2023-04-03T13:54:24;97894.44;;;7.32;50.76
70968;BME280;58629;48.808;8.820;2023-04-03T13:56:54;97893.56;;;7.17;50.35
70968;BME280;58629;48.808;8.820;2023-04-03T13:59:31;97889.56;;;7.37;53.21
70968;BME280;58629;48.808;8.820;2023-04-03T14:04:31;97883.03;;;7.75;55.32
70968;BME280;58629;48.808;8.820;2023-04-03T14:06:57;97883.00;;;7.64;52.25
70968;BME280;58629;48.808;8.820;2023-04-03T14:09:25;97879.53;;;8.32;55.23
70968;BME280;58629;48.808;8.820;2023-04-03T14:12:01;97881.09;;;8.58;54.41
70968;BME280;58629;48.808;8.820;2023-04-03T14:14:31;97881.16;;;9.00;54.22
70968;BME280;58629;48.808;8.820;2023-04-03T14:17:00;97875.53;;;9.09;51.94
70968;BME280;58629;48.808;8.820;2023-04-03T14:19:29;97880.41;;;9.38;52.08
70968;BME280;58629;48.808;8.820;2023-04-03T14:21:56;97870.97;;;9.02;47.08
70968;BME280;58629;48.808;8.820;2023-04-03T14:24:23;97874.78;;;9.01;50.90
70968;BME280;58629;48.808;8.820;2023-04-03T14:26:50;97871.72;;;8.71;48.25
70968;BME280;58629;48.808;8.820;2023-04-03T14:29:16;97867.47;;;8.28;47.58
70968;BME280;58629;48.808;8.820;2023-04-03T14:31:43;97872.28;;;8.15;47.50
70968;BME280;58629;48.808;8.820;2023-04-03T14:34:13;97872.69;;;8.14;47.54
70968;BME280;58629;48.808;8.820;2023-04-03T14:36:39;97871.00;;;7.74;49.24
70968;BME280;58629;48.808;8.820;2023-04-03T14:39:06;97866.34;;;7.53;47.60
70968;BME280;58629;48.808;8.820;2023-04-03T14:41:32;97875.44;;;7.63;50.85
70968;BME280;58629;48.808;8.820;2023-04-03T14:43:58;97865.53;;;7.46;49.04
70968;BME280;58629;48.808;8.820;2023-04-03T14:46:28;97861.59;;;7.19;47.30
70968;BME280;58629;48.808;8.820;2023-04-03T14:48:54;97861.13;;;7.06;47.62
70968;BME280;58629;48.808;8.820;2023-04-03T14:51:20;97865.50;;;6.88;48.69
70968;BME280;58629;48.808;8.820;2023-04-03T14:53:46;97867.22;;;6.70;51.10
70968;BME280;58629;48.808;8.820;2023-04-03T14:56:13;97863.44;;;6.67;51.11
70968;BME280;58629;48.808;8.820;2023-04-03T14:58:39;97866.41;;;6.66;51.54
70968;BME280;58629;48.808;8.820;2023-04-03T15:01:04;97860.06;;;6.67;50.19
70968;BME280;58629;48.808;8.820;2023-04-03T15:03:29;97855.16;;;6.65;48.98
70968;BME280;58629;48.808;8.820;2023-04-03T15:05:55;97853.22;;;6.62;48.66